05U

Eureka Airport

Eureka, Nevada, USA
METAR K05U 181235Z AUTO 22007KT 10SM CLR 04/02 A3007 RMK A01
Observed Flight Rules
Jun-18 @ 12:35 UTC (35 minutes ago) Visual Flight Rules
Wind Visibility Clouds
220° at 7 knots 10 miles
  • Clear skies
Temperatures Readings
Current 4°C / 39°F
Dewpoint 2°C / 36°F
Humidity 87%
Altimeter 30.07" Hg
Pressure 1018 hPa
Elevation 1816
METAR K05U 181235Z AUTO 22007KT 10SM CLR 04/02 A3007 RMK A01
Observed Flight Rules
Jun-18 @ 12:35 UTC
(35 minutes ago)
VFR
Wind Visibility
220° at 7 knots 10 miles
Clouds
  • Clear skies
Temperature Dewpoint
4°C / 39°F 2°C / 36°F
Humidity Altimeter Pressure
87% 30.07" Hg 1018 hPa